Time;durP1;ratioP1;P1;durP2;ratioP2;P2;SDS_P1;SDS_P2;PMS_P1;PMS_P2;Temp;Humidity;BMP_temperature;BMP_pressure;BME280_temperature;BME280_humidity;BME280_pressure;Samples;Min_cycle;Max_cycle;Signal;HPM_P1;HPM_P2
2023/06/10 00:02:12;;;;;;;10.77;7.53;;;22.60;56.20;;;22.09;46.85;100421.06;4986466;28;20053;-82
2023/06/10 00:04:39;;;;;;;9.40;7.07;;;22.60;56.10;;;22.06;46.80;100413.50;4993309;28;20546;-83
2023/06/10 00:07:08;;;;;;;9.85;7.20;;;22.50;56.30;;;22.03;46.67;100412.16;5006765;28;20100;-83
2023/06/10 00:09:36;;;;;;;10.13;7.47;;;22.50;56.50;;;21.98;46.96;100417.66;4990208;28;20049;-82
2023/06/10 00:12:05;;;;;;;10.57;7.50;;;22.50;56.80;;;21.95;47.12;100420.94;4989748;28;20046;-83
2023/06/10 00:14:32;;;;;;;9.55;7.53;;;22.40;56.90;;;21.90;47.13;100418.28;4988439;28;20045;-82
2023/06/10 00:17:01;;;;;;;12.10;8.38;;;22.30;57.10;;;21.84;47.47;100425.66;4989216;28;20047;-83
2023/06/10 00:19:30;;;;;;;9.20;7.75;;;22.30;57.20;;;21.82;47.38;100421.63;4987647;28;20042;-81
2023/06/10 00:21:59;;;;;;;10.23;7.03;;;22.30;57.30;;;21.79;47.25;100422.19;4989514;28;20125;-83
2023/06/10 00:24:26;;;;;;;10.85;7.95;;;22.20;57.20;;;21.74;47.57;100412.19;4971025;28;20137;-81
2023/06/10 00:26:53;;;;;;;10.02;7.25;;;22.20;57.60;;;21.72;47.96;100405.44;4988109;28;20042;-83
2023/06/10 00:29:21;;;;;;;9.95;8.40;;;22.10;57.80;;;21.67;48.29;100413.63;4989675;28;20096;-82
2023/06/10 00:31:48;;;;;;;9.98;7.95;;;22.10;58.00;;;21.63;48.33;100410.69;4996094;28;20069;-83
2023/06/10 00:34:16;;;;;;;11.23;9.05;;;22.10;58.30;;;21.58;48.26;100406.13;4990650;28;20121;-80
2023/06/10 00:36:44;;;;;;;11.95;8.23;;;22.00;58.20;;;21.54;48.16;100413.19;4974870;28;20052;-82
2023/06/10 00:39:11;;;;;;;10.43;8.02;;;22.00;58.30;;;21.51;48.43;100410.25;4982473;28;20523;-80
2023/06/10 00:41:38;;;;;;;9.52;7.82;;;21.90;58.60;;;21.46;48.40;100411.09;4971157;28;20077;-81
2023/06/10 00:44:06;;;;;;;10.18;8.52;;;21.90;58.70;;;21.43;48.37;100414.41;5005525;28;20077;-83
2023/06/10 00:46:33;;;;;;;11.82;7.75;;;21.90;58.90;;;21.42;48.72;100420.09;4975604;28;20145;-81
2023/06/10 00:49:01;;;;;;;9.98;7.97;;;21.80;58.90;;;21.39;48.57;100418.78;4999509;28;20093;-81
2023/06/10 00:51:29;;;;;;;11.30;8.40;;;21.80;58.90;;;21.34;49.15;100418.81;4972924;28;20578;-80
2023/06/10 00:53:57;;;;;;;12.10;8.48;;;21.80;59.10;;;21.31;49.47;100413.94;4964764;28;20113;-82
2023/06/10 00:56:25;;;;;;;12.30;8.07;;;21.70;59.40;;;21.29;49.31;100418.81;4971618;28;20152;-83
2023/06/10 00:58:52;;;;;;;10.93;8.40;;;21.70;59.40;;;21.26;49.12;100416.66;4970356;28;20047;-80
2023/06/10 01:01:19;;;;;;;11.25;8.30;;;21.70;59.70;;;21.24;49.22;100410.72;4997354;28;20073;-81
2023/06/10 01:03:48;;;;;;;12.75;8.48;;;21.70;59.70;;;21.24;49.33;100421.59;4987177;28;20065;-81
2023/06/10 01:06:33;;;;;;;9.57;8.40;;;21.60;59.50;;;21.23;48.96;100415.34;4990679;28;20053;-83
2023/06/10 01:09:14;;;;;;;10.82;8.20;;;21.60;59.50;;;21.22;48.99;100415.63;4988485;28;20038;-81
2023/06/10 01:11:50;;;;;;;10.05;7.63;;;21.60;59.70;;;21.21;48.98;100420.22;4991429;28;20042;-83
2023/06/10 01:14:20;;;;;;;11.65;8.13;;;21.60;59.50;;;21.23;48.47;100420.78;4982507;28;20129;-82
2023/06/10 01:16:48;;;;;;;13.07;8.20;;;21.60;58.90;;;21.25;48.68;100426.72;4991152;28;20053;-83
2023/06/10 01:19:17;;;;;;;10.27;7.90;;;21.70;59.30;;;21.27;48.08;100423.72;4983074;28;20081;-83
2023/06/10 01:21:48;;;;;;;11.32;7.65;;;21.70;59.00;;;21.31;48.33;100425.59;4979763;28;20511;-81
2023/06/10 01:24:18;;;;;;;12.52;7.82;;;21.70;58.80;;;21.32;48.33;100427.22;4968161;28;20047;-82
2023/06/10 01:26:50;;;;;;;9.20;7.50;;;21.70;58.90;;;21.33;48.67;100431.56;4987711;28;20046;-82
2023/06/10 01:29:29;;;;;;;10.25;7.85;;;21.70;59.30;;;21.31;49.03;100427.50;4980770;28;20046;-83
2023/06/10 01:32:12;;;;;;;11.07;8.27;;;21.70;59.50;;;21.29;49.17;100429.69;4967489;28;20089;-84
2023/06/10 01:34:42;;;;;;;11.25;8.43;;;21.70;59.50;;;21.27;49.25;100424.50;4973647;28;20053;-81
2023/06/10 01:37:14;;;;;;;13.85;8.60;;;21.70;59.80;;;21.25;49.28;100420.47;4992488;28;20566;-82
2023/06/10 01:39:43;;;;;;;12.85;7.90;;;21.70;60.00;;;21.25;49.15;100424.00;4971518;28;20414;-81
2023/06/10 01:42:12;;;;;;;12.40;9.00;;;21.70;60.00;;;21.23;49.28;100419.97;4963169;28;20066;-82
2023/06/10 01:44:41;;;;;;;12.55;8.95;;;21.70;60.00;;;21.21;49.31;100425.66;4979767;28;20066;-82
2023/06/10 01:47:09;;;;;;;11.75;8.70;;;21.60;60.10;;;21.17;49.77;100416.47;4981932;28;20053;-81
2023/06/10 01:49:36;;;;;;;12.27;8.85;;;21.60;60.20;;;21.14;49.70;100427.88;4967952;28;20050;-82
2023/06/10 01:52:05;;;;;;;11.00;8.57;;;21.60;60.30;;;21.11;49.70;100427.63;4982494;28;20427;-82
2023/06/10 01:54:35;;;;;;;12.35;9.18;;;21.50;60.50;;;21.07;49.71;100416.53;4988068;28;20047;-81
2023/06/10 01:57:06;;;;;;;14.30;8.25;;;21.50;60.50;;;21.03;50.08;100432.59;4971384;28;20755;-81
2023/06/10 01:59:55;;;;;;;10.63;8.85;;;21.50;60.70;;;21.00;50.20;100433.13;4969457;28;20058;-82
2023/06/10 02:02:24;;;;;;;11.55;8.98;;;21.50;60.60;;;20.97;49.85;100430.16;4997343;28;20049;-83
2023/06/10 02:04:51;;;;;;;12.20;9.65;;;21.40;60.60;;;20.95;50.02;100433.16;4990629;28;20640;-82
2023/06/10 02:07:23;;;;;;;10.80;8.80;;;21.40;60.80;;;20.93;50.08;100438.03;4997189;28;20042;-81
2023/06/10 02:09:51;;;;;;;11.15;8.48;;;21.30;60.70;;;20.92;50.16;100436.44;4985365;28;20130;-83
2023/06/10 02:12:20;;;;;;;10.02;8.68;;;21.30;60.90;;;20.92;49.97;100436.44;4985381;28;20560;-83
2023/06/10 02:14:48;;;;;;;11.02;9.20;;;21.30;60.80;;;20.92;50.15;100432.91;4984364;28;20038;-83
2023/06/10 02:17:15;;;;;;;11.15;9.27;;;21.30;61.00;;;20.92;50.13;100435.63;4991656;28;20151;-84
2023/06/10 02:19:43;;;;;;;11.82;9.57;;;21.30;61.20;;;20.90;50.38;100438.63;4994290;28;20042;-81
2023/06/10 02:22:10;;;;;;;12.05;8.85;;;21.30;61.10;;;20.88;50.51;100435.38;5003002;28;20045;-81
2023/06/10 02:24:38;;;;;;;10.48;8.82;;;21.30;61.40;;;20.86;50.59;100437.56;4974504;28;20050;-82
2023/06/10 02:27:07;;;;;;;16.05;8.70;;;21.30;61.60;;;20.86;50.46;100440.28;4999006;28;20038;-83
2023/06/10 02:29:35;;;;;;;11.27;9.82;;;21.30;61.80;;;20.84;50.53;100445.19;4968349;28;20050;-83
2023/06/10 02:32:04;;;;;;;12.07;9.75;;;21.30;61.70;;;20.82;50.58;100444.63;4972392;28;20431;-81
2023/06/10 02:34:31;;;;;;;12.35;10.13;;;21.20;61.60;;;20.80;50.57;100441.41;4973216;28;20042;-82
2023/06/10 02:37:00;;;;;;;14.20;9.70;;;21.20;61.80;;;20.76;50.91;100435.72;4978214;28;20474;-82
2023/06/10 02:39:32;;;;;;;11.90;9.52;;;21.20;61.80;;;20.74;51.00;100440.63;4991450;28;20038;-83
2023/06/10 02:42:02;;;;;;;;;;;21.20;62.00;;;20.72;51.19;100441.97;4973626;28;20136;-82
2023/06/10 02:44:31;;;;;;;11.93;9.60;;;21.10;62.10;;;20.71;50.91;100440.34;5011327;28;20377;-81
2023/06/10 02:46:58;;;;;;;13.63;10.00;;;21.10;62.20;;;20.69;51.00;100440.66;4992665;28;20101;-83
2023/06/10 02:49:27;;;;;;;14.32;9.57;;;21.10;62.20;;;20.68;50.70;100435.50;4966838;28;20058;-81
2023/06/10 02:51:56;;;;;;;15.80;10.10;;;21.10;62.20;;;20.65;51.02;100444.19;4973038;28;20058;-85
2023/06/10 02:54:25;;;;;;;14.70;10.15;;;21.00;62.30;;;20.61;51.52;100435.81;4973063;28;20052;-81
2023/06/10 02:56:56;;;;;;;14.07;9.38;;;21.00;62.60;;;20.57;51.47;100438.25;4973503;28;20053;-82
2023/06/10 02:59:26;;;;;;;;;;;21.00;62.80;;;20.53;51.67;100428.25;4985315;28;20076;-81
2023/06/10 03:01:55;;;;;;;13.65;10.18;;;21.00;62.80;;;20.49;51.65;100441.53;4987183;28;19931;-80
2023/06/10 03:04:25;;;;;;;14.93;10.83;;;20.90;62.90;;;20.48;51.50;100441.81;4994966;22;20558;-82
2023/06/10 03:07:03;;;;;;;14.75;9.93;;;20.90;63.10;;;20.46;51.54;100439.38;4988212;28;20046;-82
2023/06/10 03:09:33;;;;;;;12.10;9.55;;;20.90;63.00;;;20.45;51.47;100437.75;4973316;28;20042;-83
2023/06/10 03:12:02;;;;;;;13.65;9.95;;;20.90;63.20;;;20.44;51.93;100430.69;4989135;28;20073;-83
2023/06/10 03:14:34;;;;;;;12.90;10.05;;;20.90;63.30;;;20.44;51.82;100444.22;4962565;28;20042;-83
2023/06/10 03:17:04;;;;;;;14.60;10.38;;;20.80;63.60;;;20.42;51.78;100443.72;4953995;28;20419;-80
2023/06/10 03:19:34;;;;;;;;;;;20.80;63.40;;;20.41;51.90;100439.38;4970698;28;20049;-83
2023/06/10 03:22:10;;;;;;;15.68;10.93;;;20.80;63.40;;;20.41;52.18;100441.28;4948207;28;20025;-83
2023/06/10 03:24:43;;;;;;;16.40;10.48;;;20.80;63.60;;;20.40;52.21;100437.78;4956313;28;20047;-83
2023/06/10 03:27:11;;;;;;;14.88;10.63;;;20.80;63.80;;;20.39;52.05;100436.13;4981183;28;20058;-82
2023/06/10 03:29:40;;;;;;;14.07;10.48;;;20.80;63.80;;;20.39;52.24;100438.03;4964996;28;20112;-81
2023/06/10 03:32:10;;;;;;;14.40;10.27;;;20.80;64.00;;;20.39;52.26;100448.88;4956249;28;20047;-81
2023/06/10 03:34:39;;;;;;;12.90;10.10;;;20.80;63.90;;;20.36;52.28;100446.72;4975424;28;20051;-83
2023/06/10 03:37:07;;;;;;;13.85;10.23;;;20.80;64.00;;;20.36;52.41;100447.53;4945901;28;20078;-83
2023/06/10 03:39:34;;;;;;;17.83;10.52;;;20.80;64.20;;;20.35;52.98;100454.03;4970225;28;20432;-83
2023/06/10 03:42:03;;;;;;;14.52;11.07;;;20.80;64.50;;;20.34;53.08;100449.69;4970438;28;20518;-82
2023/06/10 03:44:32;;;;;;;13.23;10.55;;;20.80;64.60;;;20.32;53.00;100454.59;4954246;28;20053;-82
2023/06/10 03:46:59;;;;;;;14.40;11.02;;;20.80;64.60;;;20.30;53.01;100454.03;4952937;28;20074;-82
2023/06/10 03:49:29;;;;;;;15.82;10.48;;;20.80;64.60;;;20.29;52.82;100461.34;4951584;28;20152;-82
2023/06/10 03:51:58;;;;;;;12.55;10.32;;;20.80;65.00;;;20.28;53.28;100458.94;4953957;28;20050;-82
2023/06/10 03:54:26;;;;;;;14.20;10.35;;;20.70;64.80;;;20.28;52.82;100456.22;4969721;28;20838;-82
2023/06/10 03:56:53;;;;;;;16.08;10.95;;;20.70;64.80;;;20.29;52.84;100465.97;4952927;28;20046;-82
2023/06/10 03:59:20;;;;;;;13.80;11.32;;;20.70;64.80;;;20.29;53.32;100458.66;4953986;28;20062;-81
2023/06/10 04:01:48;;;;;;;14.13;11.38;;;20.70;65.00;;;20.31;53.19;100466.53;4962361;28;20038;-82
2023/06/10 04:04:17;;;;;;;14.18;10.68;;;20.80;65.20;;;20.30;53.01;100459.44;4953983;28;20058;-82
2023/06/10 04:06:46;;;;;;;16.05;11.27;;;20.80;65.00;;;20.30;53.02;100456.75;4970760;28;20503;-82
2023/06/10 04:09:13;;;;;;;14.68;11.45;;;20.80;65.00;;;20.32;53.14;100468.94;4950754;28;20113;-82
2023/06/10 04:11:41;;;;;;;17.67;11.15;;;20.80;65.10;;;20.32;52.97;100468.13;4956518;28;20050;-84
2023/06/10 04:14:08;;;;;;;14.85;11.38;;;20.80;65.10;;;20.33;53.09;100478.69;4956356;28;20086;-80
2023/06/10 04:16:36;;;;;;;16.95;11.45;;;20.80;64.90;;;20.34;53.09;100476.78;4955475;28;20049;-78
2023/06/10 04:19:04;;;;;;;14.30;11.45;;;20.80;65.40;;;20.34;53.10;100474.06;4974951;28;20500;-76
2023/06/10 04:21:31;;;;;;;15.00;11.27;;;20.80;65.60;;;20.33;53.15;100469.75;4972731;28;20050;-76
2023/06/10 04:24:00;;;;;;;15.60;12.02;;;20.80;65.40;;;20.35;53.21;100480.28;4959454;28;20339;-76
2023/06/10 04:26:27;;;;;;;14.35;11.70;;;20.70;65.40;;;20.39;53.31;100482.19;4968848;28;20050;-76
2023/06/10 04:28:55;;;;;;;15.75;11.45;;;20.80;65.40;;;20.45;53.06;100474.88;4952794;28;20039;-76
2023/06/10 04:31:22;;;;;;;17.42;12.65;;;20.90;65.20;;;20.49;53.70;100473.25;4952184;28;20078;-76
2023/06/10 04:33:49;;;;;;;15.57;11.20;;;21.00;65.30;;;20.56;53.29;100479.19;4951177;28;20500;-76
2023/06/10 04:36:17;;;;;;;16.45;11.77;;;21.00;65.40;;;20.64;53.04;100473.16;4956456;28;20043;-76
2023/06/10 04:38:44;;;;;;;16.27;12.30;;;21.10;65.40;;;20.73;52.86;100478.84;4985881;28;20056;-76
2023/06/10 04:41:13;;;;;;;14.93;11.63;;;21.20;65.00;;;20.85;52.67;100475.81;4964079;28;20042;-77
2023/06/10 04:43:40;;;;;;;17.08;12.18;;;21.30;65.00;;;20.95;52.61;100479.25;4963469;28;20050;-76
2023/06/10 04:46:08;;;;;;;17.05;11.93;;;21.40;64.80;;;21.05;52.89;100484.63;4968038;28;20058;-76
2023/06/10 04:48:36;;;;;;;16.75;11.75;;;21.50;65.00;;;21.15;52.46;100478.34;4950614;28;20781;-77
2023/06/10 04:51:05;;;;;;;14.15;11.35;;;21.60;64.90;;;21.28;52.17;100476.91;4967937;28;20038;-76
2023/06/10 04:53:32;;;;;;;18.35;12.23;;;21.70;64.60;;;21.40;52.25;100474.66;4969441;28;20042;-76
2023/06/10 04:56:00;;;;;;;15.93;11.85;;;21.80;64.50;;;21.52;52.56;100483.25;4969783;28;20047;-76
2023/06/10 04:58:28;;;;;;;17.58;12.50;;;21.90;64.80;;;21.63;51.78;100481.25;4951141;28;20137;-77
2023/06/10 05:00:55;;;;;;;16.98;12.23;;;22.00;63.40;;;21.72;51.13;100481.47;4974430;28;20101;-76
2023/06/10 05:03:23;;;;;;;14.25;11.90;;;22.10;63.20;;;21.80;50.76;100478.13;4967173;28;20050;-76
2023/06/10 05:05:50;;;;;;;13.45;11.25;;;22.20;62.30;;;21.88;50.53;100480.22;4969775;28;20385;-77
2023/06/10 05:08:17;;;;;;;17.25;12.02;;;22.30;62.30;;;21.97;50.33;100481.22;4978707;28;20050;-77
2023/06/10 05:10:44;;;;;;;15.05;11.65;;;22.40;61.90;;;22.03;50.51;100477.34;4969834;28;20046;-78
2023/06/10 05:13:11;;;;;;;15.30;11.75;;;22.50;61.80;;;22.09;50.74;100481.63;4977700;28;20117;-78
2023/06/10 05:15:44;;;;;;;17.33;11.70;;;22.60;62.40;;;22.19;50.29;100479.94;4969060;28;20130;-76
2023/06/10 05:18:11;;;;;;;14.10;10.65;;;22.70;61.50;;;22.27;49.64;100480.13;4966035;28;20039;-76
2023/06/10 05:20:39;;;;;;;16.92;11.02;;;22.70;61.20;;;22.35;50.13;100484.09;4967184;28;20039;-76
2023/06/10 05:23:06;;;;;;;16.25;11.48;;;22.80;61.40;;;22.42;49.45;100487.28;4977117;28;20048;-81
2023/06/10 05:25:33;;;;;;;14.60;10.75;;;22.90;60.70;;;22.49;49.71;100478.78;4949950;28;20047;-77
2023/06/10 05:28:01;;;;;;;14.80;10.57;;;23.00;61.10;;;22.56;49.59;100490.91;4959093;28;20047;-78
2023/06/10 05:30:28;;;;;;;13.32;10.40;;;23.00;60.60;;;22.59;48.90;100487.63;4968010;28;20673;-78
2023/06/10 05:32:57;;;;;;;14.10;11.10;;;23.10;59.80;;;22.70;49.22;100488.31;4968633;28;20038;-78
2023/06/10 05:35:24;;;;;;;13.13;10.77;;;23.10;60.20;;;22.78;48.81;100489.56;4974013;28;20074;-78
2023/06/10 05:37:51;;;;;;;15.10;10.38;;;23.20;59.90;;;22.85;48.95;100476.41;4971822;28;20052;-78
2023/06/10 05:40:19;;;;;;;15.45;9.93;;;23.30;59.90;;;22.91;47.59;100479.91;4978901;28;20051;-78
2023/06/10 05:42:46;;;;;;;16.63;10.13;;;23.30;58.50;;;22.99;48.19;100485.50;4988668;28;20129;-78
2023/06/10 05:45:13;;;;;;;16.83;10.52;;;23.40;59.00;;;23.06;48.45;100485.13;4988190;28;20117;-78
2023/06/10 05:47:41;;;;;;;14.50;9.95;;;23.50;59.10;;;23.13;48.23;100480.94;4988792;28;20042;-78
2023/06/10 05:50:10;;;;;;;12.27;9.90;;;23.60;58.90;;;23.21;47.20;100489.53;4967697;28;20046;-78
2023/06/10 05:52:40;;;;;;;14.88;9.68;;;23.70;57.80;;;23.26;46.99;100487.53;4972153;28;20113;-78
2023/06/10 05:55:08;;;;;;;13.73;10.15;;;23.70;57.40;;;23.33;46.83;100484.47;4980327;28;20054;-78
2023/06/10 05:57:35;;;;;;;13.07;9.52;;;23.80;57.20;;;23.40;46.52;100487.59;4976722;28;20129;-78
2023/06/10 06:00:03;;;;;;;13.50;9.60;;;23.80;56.90;;;23.47;47.09;100489.94;4992609;28;20410;-78
2023/06/10 06:02:39;;;;;;;14.90;9.60;;;23.90;57.50;;;23.55;46.04;100489.28;4992257;28;20133;-79
2023/06/10 06:05:09;;;;;;;14.68;9.25;;;24.00;56.20;;;23.62;46.70;100481.53;4960445;28;20082;-78
2023/06/10 06:07:36;;;;;;;12.68;9.52;;;24.10;57.10;;;23.71;45.62;100492.56;4952896;28;20126;-77
2023/06/10 06:10:04;;;;;;;15.68;8.70;;;24.10;55.90;;;23.76;45.90;100484.31;4970935;28;20472;-77
2023/06/10 06:12:31;;;;;;;11.55;8.60;;;24.20;56.10;;;23.83;46.18;100490.19;4968782;28;20042;-77
2023/06/10 06:14:58;;;;;;;13.02;9.27;;;24.40;56.60;;;23.91;45.98;100486.78;4970147;28;20121;-77
2023/06/10 06:17:26;;;;;;;13.70;8.23;;;24.40;56.40;;;24.00;45.80;100489.63;4983725;28;20145;-77
2023/06/10 06:19:56;;;;;;;12.90;8.52;;;24.50;55.90;;;24.07;45.89;100482.69;4972769;28;20066;-78
2023/06/10 06:22:25;;;;;;;11.65;8.55;;;24.50;55.80;;;24.14;45.38;100485.78;4972010;28;20130;-78
2023/06/10 06:24:52;;;;;;;12.52;7.80;;;24.70;55.40;;;24.21;45.31;100479.16;4972170;28;20043;-77
2023/06/10 06:27:19;;;;;;;9.68;7.45;;;24.70;55.40;;;24.28;45.17;100480.34;4970800;28;20215;-77
2023/06/10 06:29:46;;;;;;;10.48;7.47;;;24.80;55.20;;;24.36;45.21;100479.69;4971572;28;20046;-77
2023/06/10 06:32:14;;;;;;;11.82;7.53;;;24.90;55.10;;;24.43;44.82;100484.72;4971502;28;20042;-77
2023/06/10 06:34:41;;;;;;;8.77;6.45;;;25.00;54.60;;;24.50;43.67;100487.88;4972277;28;20463;-77
2023/06/10 06:37:08;;;;;;;10.73;7.40;;;25.00;53.30;;;24.57;43.61;100482.81;4972174;28;20173;-77
2023/06/10 06:39:39;;;;;;;9.70;7.00;;;25.10;52.70;;;24.64;43.46;100485.94;4953951;28;20062;-78
2023/06/10 06:42:08;;;;;;;16.95;7.43;;;25.20;52.60;;;24.71;41.69;100482.00;4968009;28;20121;-78
2023/06/10 06:44:52;;;;;;;10.57;6.57;;;25.30;50.60;;;24.74;41.09;100497.72;4972827;28;20496;-78
2023/06/10 06:47:19;;;;;;;12.95;7.00;;;25.30;50.20;;;24.78;40.71;100496.81;4975408;28;20074;-78
2023/06/10 06:49:47;;;;;;;8.32;5.93;;;25.30;49.50;;;24.81;39.74;100498.13;4970153;28;20042;-78
2023/06/10 06:52:14;;;;;;;10.95;6.35;;;25.30;48.30;;;24.81;39.14;100496.22;4955058;28;20142;-78
2023/06/10 06:54:43;;;;;;;8.32;6.07;;;25.40;47.70;;;24.82;39.71;100491.56;4969928;28;20069;-78
2023/06/10 06:57:10;;;;;;;9.75;6.30;;;25.40;48.30;;;24.86;40.34;100487.13;4968352;28;20066;-78
2023/06/10 06:59:37;;;;;;;11.13;6.30;;;25.40;48.50;;;24.93;39.79;100495.69;4967724;28;20070;-78
2023/06/10 07:02:05;;;;;;;10.23;6.20;;;25.50;48.00;;;24.94;39.73;100497.31;4971219;28;20042;-79
2023/06/10 07:04:33;;;;;;;12.23;6.85;;;25.50;48.00;;;24.95;38.82;100498.91;4971640;28;20065;-79
2023/06/10 07:07:00;;;;;;;8.52;5.78;;;25.50;47.10;;;25.00;41.05;100498.81;4973160;28;20043;-78
2023/06/10 07:09:28;;;;;;;10.85;6.13;;;25.60;49.20;;;25.07;41.56;100499.22;4970510;28;20051;-77
2023/06/10 07:11:56;;;;;;;16.77;7.22;;;25.70;50.00;;;25.12;41.16;100493.63;4974050;28;20062;-77
2023/06/10 07:14:23;;;;;;;8.90;5.93;;;25.70;49.70;;;25.19;41.69;100497.88;4966717;28;20093;-78
2023/06/10 07:16:51;;;;;;;13.77;6.55;;;25.80;50.20;;;25.26;40.18;100503.72;4951586;28;20562;-77
2023/06/10 07:19:18;;;;;;;8.60;5.78;;;25.90;48.30;;;25.28;39.25;100499.56;4969141;28;20526;-78
2023/06/10 07:21:45;;;;;;;9.75;6.10;;;25.90;47.20;;;25.30;39.54;100501.97;4973959;28;20154;-79
2023/06/10 07:24:12;;;;;;;11.13;6.22;;;25.90;47.10;;;25.35;39.81;100497.22;4971054;28;20057;-79
2023/06/10 07:26:40;;;;;;;9.43;6.28;;;25.90;47.90;;;25.38;39.78;100502.06;4969766;28;20043;-79
2023/06/10 07:29:08;;;;;;;9.25;6.55;;;26.00;48.00;;;25.39;39.68;100500.94;4965729;28;20050;-79
2023/06/10 07:31:35;;;;;;;10.75;5.85;;;26.00;48.00;;;25.44;39.58;100497.28;4968111;28;20050;-79
2023/06/10 07:34:03;;;;;;;9.88;6.05;;;26.00;47.60;;;25.46;39.54;100497.75;4968906;28;20130;-79
2023/06/10 07:36:30;;;;;;;9.15;6.57;;;26.00;47.60;;;25.51;38.38;100505.03;4976632;28;20125;-79
2023/06/10 07:38:57;;;;;;;10.20;6.25;;;26.10;46.30;;;25.53;38.08;100503.63;4989576;28;20182;-79
2023/06/10 07:41:25;;;;;;;11.30;6.35;;;26.10;46.10;;;25.53;37.93;100487.22;4971192;28;20073;-79
2023/06/10 07:43:55;;;;;;;16.42;6.60;;;26.10;45.70;;;25.53;38.57;100500.88;4976406;28;20049;-78
2023/06/10 07:46:24;;;;;;;13.20;6.80;;;26.10;46.20;;;25.47;37.59;100498.56;4971777;28;20055;-78
2023/06/10 07:48:54;;;;;;;13.05;5.75;;;26.00;45.20;;;25.47;38.49;100490.38;4969262;28;20043;-77
2023/06/10 07:51:22;;;;;;;8.70;6.07;;;26.00;46.20;;;25.50;38.55;100485.09;4971969;28;20516;-77
2023/06/10 07:53:50;;;;;;;7.85;5.68;;;26.10;46.10;;;25.55;38.51;100493.16;4978028;28;20972;-76
2023/06/10 07:56:17;;;;;;;12.13;5.93;;;26.10;46.30;;;25.60;38.28;100487.56;4970008;28;20483;-77
2023/06/10 07:58:44;;;;;;;9.32;5.90;;;26.10;45.60;;;25.63;38.20;100497.91;4982609;28;20125;-78
2023/06/10 08:01:11;;;;;;;20.63;6.25;;;26.20;45.80;;;25.60;37.56;100493.03;4978652;28;20089;-77
2023/06/10 08:03:40;;;;;;;11.32;5.45;;;26.20;44.80;;;25.65;38.01;100492.91;4983482;28;20046;-77
2023/06/10 08:06:07;;;;;;;8.48;5.82;;;26.20;45.30;;;25.71;38.70;100496.31;4968451;28;21038;-76
2023/06/10 08:08:40;;;;;;;12.40;6.10;;;26.30;46.60;;;25.77;37.12;100488.81;4968420;28;20130;-77
2023/06/10 08:11:07;;;;;;;14.30;5.68;;;26.40;44.30;;;25.83;37.71;100504.78;4976285;28;20113;-76
2023/06/10 08:13:34;;;;;;;19.00;6.57;;;26.40;44.70;;;25.87;37.07;100499.53;4981149;28;20062;-76
2023/06/10 08:16:01;;;;;;;8.98;5.50;;;26.40;44.20;;;25.92;36.39;100494.72;4990082;28;20070;-76
2023/06/10 08:18:29;;;;;;;13.55;6.00;;;26.50;43.60;;;25.93;36.57;100495.53;4972526;28;20426;-76
2023/06/10 08:20:57;;;;;;;8.25;5.90;;;26.50;43.60;;;25.94;37.88;100497.94;4966969;28;20163;-77
2023/06/10 08:23:25;;;;;;;11.50;5.80;;;26.50;45.30;;;26.01;37.15;100500.25;4969096;28;20113;-76
2023/06/10 08:25:52;;;;;;;11.63;5.07;;;26.60;43.80;;;26.07;37.46;100507.19;4970151;28;20082;-76
2023/06/10 08:28:20;;;;;;;9.27;5.57;;;26.60;44.20;;;26.15;36.71;100497.38;4969971;28;20046;-76
2023/06/10 08:30:47;;;;;;;10.02;5.82;;;26.70;43.40;;;26.17;36.69;100515.09;4970128;28;20058;-76
2023/06/10 08:33:14;;;;;;;11.13;5.30;;;26.80;43.10;;;26.23;36.18;100509.50;4968609;28;20515;-77
2023/06/10 08:35:41;;;;;;;12.85;5.80;;;26.80;43.00;;;26.23;36.36;100507.56;4969892;28;20074;-77
2023/06/10 08:38:10;;;;;;;11.75;5.72;;;26.80;42.80;;;26.30;36.43;100504.38;4982970;28;20514;-77
2023/06/10 08:40:38;;;;;;;9.27;5.93;;;26.90;43.30;;;26.30;36.39;100507.09;4961917;28;20131;-77
2023/06/10 08:43:09;;;;;;;10.88;5.60;;;26.90;42.80;;;26.32;35.81;100510.34;4970255;28;20125;-76
2023/06/10 08:45:38;;;;;;;10.90;5.55;;;26.90;42.20;;;26.34;36.00;100513.56;4952215;28;20070;-77
2023/06/10 08:48:07;;;;;;;13.55;6.40;;;26.90;42.20;;;26.34;35.67;100505.34;4969227;28;20491;-76
2023/06/10 08:50:37;;;;;;;7.68;5.50;;;26.90;42.10;;;26.30;35.77;100499.69;4945962;28;20496;-76
2023/06/10 08:53:07;;;;;;;10.73;5.45;;;26.90;42.20;;;26.34;36.66;100508.09;4969247;28;20125;-76
2023/06/10 08:55:39;;;;;;;8.95;5.25;;;26.90;43.40;;;26.38;36.39;100506.34;4966346;28;20042;-76
2023/06/10 08:58:06;;;;;;;10.32;5.60;;;26.90;42.50;;;26.37;36.43;100496.53;4966201;28;20048;-76
2023/06/10 09:00:34;;;;;;;13.82;6.28;;;27.00;43.30;;;26.35;36.51;100496.03;4949816;29;20055;-76
2023/06/10 09:03:03;;;;;;;10.52;5.95;;;26.90;42.70;;;26.37;36.81;100499.25;4970290;23;20055;-80
2023/06/10 09:05:34;;;;;;;9.60;5.80;;;26.90;43.50;;;26.43;37.73;100493.34;4988592;28;20454;-80
2023/06/10 09:08:02;;;;;;;12.38;6.47;;;27.00;44.90;;;26.54;38.78;100498.53;4986578;28;20788;-79
2023/06/10 09:10:30;;;;;;;8.73;5.85;;;27.10;46.20;;;26.55;36.29;100500.97;4986599;28;20573;-79
2023/06/10 09:12:58;;;;;;;11.50;6.13;;;27.10;43.40;;;26.55;36.47;100502.88;4980425;28;20141;-80
2023/06/10 09:15:26;;;;;;;10.02;5.45;;;27.10;43.00;;;26.54;36.71;100495.78;4969233;28;20495;-80
2023/06/10 09:17:53;;;;;;;11.98;5.63;;;27.20;43.60;;;26.58;35.89;100499.50;4964080;28;20035;-79
2023/06/10 09:20:20;;;;;;;9.55;5.80;;;27.20;42.70;;;26.57;36.37;100492.44;4969311;28;20125;-78
2023/06/10 09:22:48;;;;;;;10.38;5.80;;;27.20;42.90;;;26.55;36.21;100490.03;4968093;28;20176;-78
2023/06/10 09:25:16;;;;;;;11.00;5.97;;;27.20;43.10;;;26.53;36.37;100494.19;4965952;28;21026;-85
2023/06/10 09:27:50;;;;;;;9.48;5.53;;;27.10;43.30;;;26.50;36.46;100490.19;4959688;28;20067;-78
2023/06/10 09:30:29;;;;;;;10.50;5.82;;;27.10;43.50;;;26.46;36.79;100493.84;4962747;28;20050;-80
2023/06/10 09:32:58;;;;;;;8.85;6.05;;;27.10;43.70;;;26.46;36.77;100497.41;4967078;28;20459;-81
2023/06/10 09:35:28;;;;;;;11.45;5.57;;;27.10;43.80;;;26.44;36.71;100489.50;4958445;28;20049;-81
2023/06/10 09:37:57;;;;;;;10.45;5.45;;;27.10;43.30;;;26.48;37.01;100486.94;4963808;28;20053;-80
2023/06/10 09:40:25;;;;;;;9.65;6.18;;;27.10;44.00;;;26.54;37.54;100487.59;4964359;28;20857;-81
2023/06/10 09:42:56;;;;;;;11.90;5.55;;;27.20;44.20;;;26.58;37.30;100483.91;4978424;28;20085;-80
2023/06/10 09:45:24;;;;;;;8.90;5.55;;;27.20;44.40;;;26.56;37.99;100488.91;4985186;28;20054;-84
2023/06/10 09:47:56;;;;;;;10.88;5.68;;;27.20;45.00;;;26.53;37.19;100486.78;4983228;28;20122;-87
2023/06/10 09:50:23;;;;;;;12.15;5.40;;;27.10;44.30;;;26.53;37.58;100484.06;4972235;28;20047;-87
2023/06/10 09:52:52;;;;;;;14.93;5.90;;;27.10;44.50;;;26.58;38.04;100486.63;4971885;28;20047;-87
2023/06/10 09:55:19;;;;;;;9.70;5.72;;;27.20;44.60;;;26.64;37.62;100492.75;4972236;28;20076;-88
2023/06/10 09:57:54;;;;;;;8.90;5.88;;;27.30;44.60;;;26.68;35.41;100483.59;4972540;28;20137;-80
2023/06/10 10:00:25;;;;;;;9.00;5.50;;;27.30;42.00;;;26.68;36.03;100491.81;4972750;28;20145;-89
2023/06/10 10:02:54;;;;;;;10.85;5.78;;;27.30;42.30;;;26.68;35.61;100491.00;4972741;28;20043;-87
2023/06/10 10:05:24;;;;;;;8.95;5.40;;;27.30;41.90;;;26.69;36.35;100487.97;4968656;28;20113;-85
2023/06/10 10:07:52;;;;;;;9.73;5.85;;;27.30;42.70;;;26.72;36.21;100493.91;4972504;28;20492;-86
2023/06/10 10:10:21;;;;;;;8.85;5.72;;;27.30;42.30;;;26.69;35.84;100485.22;4971719;28;20043;-88
2023/06/10 10:12:52;;;;;;;11.88;5.53;;;27.30;42.10;;;26.68;35.88;100483.59;4969389;28;20411;-85